Oakland, Oregon
Current Conditions -  °F | °C
As of 2:53 PM on Saturday 20 Dec 2014 (Local Time) from KRBG Reporting Station
Light Rain Light Rain  
Wind Chill: 57°   Ceiling: 4100
Heat Index: 57°   Visibility: 9mi
Dew Point: 51°   Wind: 6mph
Humidity: 81%   Direction: 170°S
Pressure: 29.83"   Gusts: NA
Location:  43.42°N, 123.3°W
Report Text: KRBG 202253Z AUTO 17005KT 9SM -RA BKN041 OVC055 14/11 A2983 RMK AO2 SLP101 P0002 T01390106 $
Loading
Personal Weather Stations






























Interactive Weather Map New forecast layout! Learn more

10-Day Weather Forecast

Advertisements
Track Severe Weather on mobile